sensor_id;sensor_type;location;lat;lon;timestamp;temperature;humidity
9845;DHT22;4961;50.782;6.080;2022-10-22T00:01:14;16.50;99.90
9845;DHT22;4961;50.782;6.080;2022-10-22T00:03:42;16.50;99.90
9845;DHT22;4961;50.782;6.080;2022-10-22T00:06:11;16.50;99.90
9845;DHT22;4961;50.782;6.080;2022-10-22T00:08:39;16.60;99.90
9845;DHT22;4961;50.782;6.080;2022-10-22T00:11:12;16.50;99.90
9845;DHT22;4961;50.782;6.080;2022-10-22T00:13:40;16.60;99.90
9845;DHT22;4961;50.782;6.080;2022-10-22T00:16:09;16.50;99.90
9845;DHT22;4961;50.782;6.080;2022-10-22T00:18:38;16.50;99.90
9845;DHT22;4961;50.782;6.080;2022-10-22T00:21:08;16.50;99.90
9845;DHT22;4961;50.782;6.080;2022-10-22T00:23:39;16.40;99.90
9845;DHT22;4961;50.782;6.080;2022-10-22T00:26:10;16.40;99.90
9845;DHT22;4961;50.782;6.080;2022-10-22T00:28:38;16.40;99.90
9845;DHT22;4961;50.782;6.080;2022-10-22T00:31:07;16.40;99.90
9845;DHT22;4961;50.782;6.080;2022-10-22T00:33:36;16.50;99.90
9845;DHT22;4961;50.782;6.080;2022-10-22T00:36:04;16.40;99.90
9845;DHT22;4961;50.782;6.080;2022-10-22T00:38:33;16.50;99.90
9845;DHT22;4961;50.782;6.080;2022-10-22T00:41:02;16.50;99.90
9845;DHT22;4961;50.782;6.080;2022-10-22T00:43:32;16.50;99.90
9845;DHT22;4961;50.782;6.080;2022-10-22T00:46:01;16.50;99.90
9845;DHT22;4961;50.782;6.080;2022-10-22T00:48:31;16.50;99.90
9845;DHT22;4961;50.782;6.080;2022-10-22T00:51:03;16.50;99.90
9845;DHT22;4961;50.782;6.080;2022-10-22T00:53:35;16.50;99.90
9845;DHT22;4961;50.782;6.080;2022-10-22T00:56:05;16.60;99.90
9845;DHT22;4961;50.782;6.080;2022-10-22T00:58:38;16.60;99.90
9845;DHT22;4961;50.782;6.080;2022-10-22T01:01:13;16.60;99.90
9845;DHT22;4961;50.782;6.080;2022-10-22T01:03:42;16.60;99.90
9845;DHT22;4961;50.782;6.080;2022-10-22T01:06:16;16.60;99.90
9845;DHT22;4961;50.782;6.080;2022-10-22T01:08:52;16.60;99.90
9845;DHT22;4961;50.782;6.080;2022-10-22T01:11:34;16.50;99.90
9845;DHT22;4961;50.782;6.080;2022-10-22T01:14:12;16.50;99.90
9845;DHT22;4961;50.782;6.080;2022-10-22T01:16:52;16.50;99.90
9845;DHT22;4961;50.782;6.080;2022-10-22T01:19:44;16.50;99.90
9845;DHT22;4961;50.782;6.080;2022-10-22T01:22:19;16.50;99.90
9845;DHT22;4961;50.782;6.080;2022-10-22T01:25:06;16.50;99.90
9845;DHT22;4961;50.782;6.080;2022-10-22T01:27:53;16.50;99.90
9845;DHT22;4961;50.782;6.080;2022-10-22T01:30:25;16.50;99.90
9845;DHT22;4961;50.782;6.080;2022-10-22T01:32:58;16.50;99.90
9845;DHT22;4961;50.782;6.080;2022-10-22T01:35:30;16.60;99.90
9845;DHT22;4961;50.782;6.080;2022-10-22T01:38:08;16.60;99.90
9845;DHT22;4961;50.782;6.080;2022-10-22T01:40:38;16.50;99.90
9845;DHT22;4961;50.782;6.080;2022-10-22T01:43:08;16.50;99.90
9845;DHT22;4961;50.782;6.080;2022-10-22T01:45:41;16.50;99.90
9845;DHT22;4961;50.782;6.080;2022-10-22T01:48:25;16.50;99.90
9845;DHT22;4961;50.782;6.080;2022-10-22T01:51:35;16.50;99.90
9845;DHT22;4961;50.782;6.080;2022-10-22T01:54:13;16.50;99.90
9845;DHT22;4961;50.782;6.080;2022-10-22T01:56:55;16.50;99.90
9845;DHT22;4961;50.782;6.080;2022-10-22T01:59:33;16.40;99.90
9845;DHT22;4961;50.782;6.080;2022-10-22T02:02:11;16.40;99.90
9845;DHT22;4961;50.782;6.080;2022-10-22T02:04:47;16.50;99.90
9845;DHT22;4961;50.782;6.080;2022-10-22T02:07:21;16.40;99.90
9845;DHT22;4961;50.782;6.080;2022-10-22T02:09:53;16.40;99.90
9845;DHT22;4961;50.782;6.080;2022-10-22T02:12:24;16.40;99.90
9845;DHT22;4961;50.782;6.080;2022-10-22T02:14:55;16.30;99.90
9845;DHT22;4961;50.782;6.080;2022-10-22T02:17:27;16.30;99.90
9845;DHT22;4961;50.782;6.080;2022-10-22T02:19:57;16.20;99.90
9845;DHT22;4961;50.782;6.080;2022-10-22T02:22:27;16.20;99.90
9845;DHT22;4961;50.782;6.080;2022-10-22T02:24:56;16.20;99.90
9845;DHT22;4961;50.782;6.080;2022-10-22T02:27:28;16.20;99.90
9845;DHT22;4961;50.782;6.080;2022-10-22T02:30:01;16.10;99.90
9845;DHT22;4961;50.782;6.080;2022-10-22T02:32:35;16.10;99.90
9845;DHT22;4961;50.782;6.080;2022-10-22T02:35:08;16.10;99.90
9845;DHT22;4961;50.782;6.080;2022-10-22T02:37:39;16.10;99.90
9845;DHT22;4961;50.782;6.080;2022-10-22T02:40:08;16.10;99.90
9845;DHT22;4961;50.782;6.080;2022-10-22T02:42:38;16.00;99.90
9845;DHT22;4961;50.782;6.080;2022-10-22T02:45:07;16.00;99.90
9845;DHT22;4961;50.782;6.080;2022-10-22T02:47:37;16.00;99.90
9845;DHT22;4961;50.782;6.080;2022-10-22T02:50:07;16.00;99.90
9845;DHT22;4961;50.782;6.080;2022-10-22T02:52:36;16.00;99.90
9845;DHT22;4961;50.782;6.080;2022-10-22T02:55:06;16.00;99.90
9845;DHT22;4961;50.782;6.080;2022-10-22T02:57:34;15.90;99.90
9845;DHT22;4961;50.782;6.080;2022-10-22T03:00:04;15.90;99.90
9845;DHT22;4961;50.782;6.080;2022-10-22T03:02:34;15.90;99.90
9845;DHT22;4961;50.782;6.080;2022-10-22T03:05:04;15.90;99.90
9845;DHT22;4961;50.782;6.080;2022-10-22T03:07:33;15.90;99.90
9845;DHT22;4961;50.782;6.080;2022-10-22T03:10:03;15.90;99.90
9845;DHT22;4961;50.782;6.080;2022-10-22T03:12:31;15.90;99.90
9845;DHT22;4961;50.782;6.080;2022-10-22T03:14:59;16.00;99.90
9845;DHT22;4961;50.782;6.080;2022-10-22T03:17:28;16.00;99.90
9845;DHT22;4961;50.782;6.080;2022-10-22T03:19:56;16.00;99.90
9845;DHT22;4961;50.782;6.080;2022-10-22T03:22:27;16.00;99.90
9845;DHT22;4961;50.782;6.080;2022-10-22T03:24:59;16.00;99.90
9845;DHT22;4961;50.782;6.080;2022-10-22T03:27:28;16.00;99.90
9845;DHT22;4961;50.782;6.080;2022-10-22T03:29:58;16.00;99.90
9845;DHT22;4961;50.782;6.080;2022-10-22T03:32:26;16.00;99.90
9845;DHT22;4961;50.782;6.080;2022-10-22T03:34:55;16.00;99.90
9845;DHT22;4961;50.782;6.080;2022-10-22T03:37:25;16.00;99.90
9845;DHT22;4961;50.782;6.080;2022-10-22T03:39:54;16.00;99.90
9845;DHT22;4961;50.782;6.080;2022-10-22T03:42:23;15.90;99.90
9845;DHT22;4961;50.782;6.080;2022-10-22T03:44:51;15.90;99.90
9845;DHT22;4961;50.782;6.080;2022-10-22T03:47:20;15.90;99.90
9845;DHT22;4961;50.782;6.080;2022-10-22T03:49:50;15.80;99.90
9845;DHT22;4961;50.782;6.080;2022-10-22T03:52:18;15.90;99.90
9845;DHT22;4961;50.782;6.080;2022-10-22T03:54:48;15.90;99.90
9845;DHT22;4961;50.782;6.080;2022-10-22T03:57:16;15.80;99.90
9845;DHT22;4961;50.782;6.080;2022-10-22T03:59:45;15.80;99.90
9845;DHT22;4961;50.782;6.080;2022-10-22T04:02:14;15.80;99.90
9845;DHT22;4961;50.782;6.080;2022-10-22T04:04:42;15.90;99.90
9845;DHT22;4961;50.782;6.080;2022-10-22T04:07:10;15.90;99.90
9845;DHT22;4961;50.782;6.080;2022-10-22T04:09:39;15.90;99.90
9845;DHT22;4961;50.782;6.080;2022-10-22T04:12:08;15.90;99.90
9845;DHT22;4961;50.782;6.080;2022-10-22T04:14:37;15.90;99.90
9845;DHT22;4961;50.782;6.080;2022-10-22T04:17:05;15.90;99.90
9845;DHT22;4961;50.782;6.080;2022-10-22T04:19:33;15.90;99.90
9845;DHT22;4961;50.782;6.080;2022-10-22T04:22:01;15.90;99.90
9845;DHT22;4961;50.782;6.080;2022-10-22T04:24:30;15.80;99.90
9845;DHT22;4961;50.782;6.080;2022-10-22T04:26:59;15.80;99.90
9845;DHT22;4961;50.782;6.080;2022-10-22T04:29:28;15.80;99.90
9845;DHT22;4961;50.782;6.080;2022-10-22T04:31:57;15.80;99.90
9845;DHT22;4961;50.782;6.080;2022-10-22T04:34:26;15.70;99.90
9845;DHT22;4961;50.782;6.080;2022-10-22T04:36:55;15.70;99.90
9845;DHT22;4961;50.782;6.080;2022-10-22T04:39:23;15.60;99.90
9845;DHT22;4961;50.782;6.080;2022-10-22T04:41:51;15.60;99.90
9845;DHT22;4961;50.782;6.080;2022-10-22T04:44:19;15.60;99.90
9845;DHT22;4961;50.782;6.080;2022-10-22T04:46:50;15.60;99.90
9845;DHT22;4961;50.782;6.080;2022-10-22T04:49:18;15.50;99.90
9845;DHT22;4961;50.782;6.080;2022-10-22T04:51:46;15.50;99.90
9845;DHT22;4961;50.782;6.080;2022-10-22T04:54:14;15.50;99.90
9845;DHT22;4961;50.782;6.080;2022-10-22T04:56:43;15.50;99.90
9845;DHT22;4961;50.782;6.080;2022-10-22T04:59:11;15.60;99.90
9845;DHT22;4961;50.782;6.080;2022-10-22T05:01:41;15.60;99.90
9845;DHT22;4961;50.782;6.080;2022-10-22T05:04:15;15.50;99.90
9845;DHT22;4961;50.782;6.080;2022-10-22T05:06:44;15.50;99.90
9845;DHT22;4961;50.782;6.080;2022-10-22T05:09:14;15.50;99.90
9845;DHT22;4961;50.782;6.080;2022-10-22T05:11:44;15.60;99.90
9845;DHT22;4961;50.782;6.080;2022-10-22T05:14:15;15.50;99.90
9845;DHT22;4961;50.782;6.080;2022-10-22T05:16:44;15.50;99.90
9845;DHT22;4961;50.782;6.080;2022-10-22T05:19:20;15.50;99.90
9845;DHT22;4961;50.782;6.080;2022-10-22T05:21:50;15.50;99.90
9845;DHT22;4961;50.782;6.080;2022-10-22T05:24:18;15.50;99.90
9845;DHT22;4961;50.782;6.080;2022-10-22T05:26:48;15.40;99.90
9845;DHT22;4961;50.782;6.080;2022-10-22T05:29:17;15.40;99.90
9845;DHT22;4961;50.782;6.080;2022-10-22T05:31:45;15.40;99.90
9845;DHT22;4961;50.782;6.080;2022-10-22T05:34:14;15.40;99.90
9845;DHT22;4961;50.782;6.080;2022-10-22T05:36:44;15.40;99.90
9845;DHT22;4961;50.782;6.080;2022-10-22T05:39:13;15.40;99.90
9845;DHT22;4961;50.782;6.080;2022-10-22T05:41:41;15.40;99.90
9845;DHT22;4961;50.782;6.080;2022-10-22T05:44:11;15.40;99.90
9845;DHT22;4961;50.782;6.080;2022-10-22T05:46:40;15.30;99.90
9845;DHT22;4961;50.782;6.080;2022-10-22T05:49:12;15.30;99.90
9845;DHT22;4961;50.782;6.080;2022-10-22T05:51:41;15.30;99.90
9845;DHT22;4961;50.782;6.080;2022-10-22T05:54:16;15.30;99.90
9845;DHT22;4961;50.782;6.080;2022-10-22T05:56:45;15.30;99.90
9845;DHT22;4961;50.782;6.080;2022-10-22T05:59:13;15.20;99.90
9845;DHT22;4961;50.782;6.080;2022-10-22T06:01:42;15.30;99.90
9845;DHT22;4961;50.782;6.080;2022-10-22T06:04:11;15.30;99.90
9845;DHT22;4961;50.782;6.080;2022-10-22T06:06:43;15.20;99.90
9845;DHT22;4961;50.782;6.080;2022-10-22T06:09:16;15.30;99.90
9845;DHT22;4961;50.782;6.080;2022-10-22T06:11:45;15.20;99.90
9845;DHT22;4961;50.782;6.080;2022-10-22T06:14:14;15.20;99.90
9845;DHT22;4961;50.782;6.080;2022-10-22T06:16:42;15.20;99.90
9845;DHT22;4961;50.782;6.080;2022-10-22T06:19:12;15.10;99.90
9845;DHT22;4961;50.782;6.080;2022-10-22T06:21:41;15.20;99.90
9845;DHT22;4961;50.782;6.080;2022-10-22T06:24:10;15.10;99.90
9845;DHT22;4961;50.782;6.080;2022-10-22T06:26:40;15.10;99.90
9845;DHT22;4961;50.782;6.080;2022-10-22T06:29:09;15.20;99.90
9845;DHT22;4961;50.782;6.080;2022-10-22T06:31:37;15.20;99.90
9845;DHT22;4961;50.782;6.080;2022-10-22T06:34:07;15.10;99.90
9845;DHT22;4961;50.782;6.080;2022-10-22T06:36:37;15.10;99.90
9845;DHT22;4961;50.782;6.080;2022-10-22T06:39:09;15.10;99.90
9845;DHT22;4961;50.782;6.080;2022-10-22T06:41:39;15.10;99.90
9845;DHT22;4961;50.782;6.080;2022-10-22T06:44:12;15.10;99.90
9845;DHT22;4961;50.782;6.080;2022-10-22T06:46:40;15.10;99.90
9845;DHT22;4961;50.782;6.080;2022-10-22T06:49:11;15.10;99.90
9845;DHT22;4961;50.782;6.080;2022-10-22T06:51:41;15.10;99.90
9845;DHT22;4961;50.782;6.080;2022-10-22T06:54:10;15.10;99.90
9845;DHT22;4961;50.782;6.080;2022-10-22T06:56:39;15.10;99.90
9845;DHT22;4961;50.782;6.080;2022-10-22T06:59:08;15.10;99.90
9845;DHT22;4961;50.782;6.080;2022-10-22T07:01:37;15.10;99.90
9845;DHT22;4961;50.782;6.080;2022-10-22T07:04:06;15.10;99.90
9845;DHT22;4961;50.782;6.080;2022-10-22T07:06:35;15.10;99.90
9845;DHT22;4961;50.782;6.080;2022-10-22T07:09:03;15.10;99.90
9845;DHT22;4961;50.782;6.080;2022-10-22T07:11:38;15.10;99.90
9845;DHT22;4961;50.782;6.080;2022-10-22T07:14:08;15.10;99.90
9845;DHT22;4961;50.782;6.080;2022-10-22T07:16:37;15.10;99.90
9845;DHT22;4961;50.782;6.080;2022-10-22T07:19:08;15.20;99.90
9845;DHT22;4961;50.782;6.080;2022-10-22T07:21:36;15.30;99.90
9845;DHT22;4961;50.782;6.080;2022-10-22T07:24:05;15.40;99.90
9845;DHT22;4961;50.782;6.080;2022-10-22T07:26:33;15.50;99.90
9845;DHT22;4961;50.782;6.080;2022-10-22T07:29:03;15.50;99.90
9845;DHT22;4961;50.782;6.080;2022-10-22T07:31:33;15.50;99.90
9845;DHT22;4961;50.782;6.080;2022-10-22T07:34:01;15.60;99.90
9845;DHT22;4961;50.782;6.080;2022-10-22T07:36:30;15.50;99.90
9845;DHT22;4961;50.782;6.080;2022-10-22T07:38:59;15.50;99.90
9845;DHT22;4961;50.782;6.080;2022-10-22T07:41:28;15.50;99.90
9845;DHT22;4961;50.782;6.080;2022-10-22T07:43:57;15.50;99.90
9845;DHT22;4961;50.782;6.080;2022-10-22T07:46:26;15.60;99.90
9845;DHT22;4961;50.782;6.080;2022-10-22T07:48:55;15.70;99.90
9845;DHT22;4961;50.782;6.080;2022-10-22T07:51:24;15.60;99.90
9845;DHT22;4961;50.782;6.080;2022-10-22T07:53:53;15.60;99.90
9845;DHT22;4961;50.782;6.080;2022-10-22T07:56:21;15.60;99.90
9845;DHT22;4961;50.782;6.080;2022-10-22T07:58:49;15.60;99.90
9845;DHT22;4961;50.782;6.080;2022-10-22T08:01:18;15.70;99.90
9845;DHT22;4961;50.782;6.080;2022-10-22T08:03:46;15.70;99.90
9845;DHT22;4961;50.782;6.080;2022-10-22T08:06:16;15.80;99.90
9845;DHT22;4961;50.782;6.080;2022-10-22T08:08:44;15.80;99.90
9845;DHT22;4961;50.782;6.080;2022-10-22T08:11:13;15.80;99.90
9845;DHT22;4961;50.782;6.080;2022-10-22T08:13:42;15.70;99.90
9845;DHT22;4961;50.782;6.080;2022-10-22T08:16:12;15.70;99.90
9845;DHT22;4961;50.782;6.080;2022-10-22T08:18:40;15.80;99.90
9845;DHT22;4961;50.782;6.080;2022-10-22T08:21:09;15.80;99.90
9845;DHT22;4961;50.782;6.080;2022-10-22T08:23:39;15.90;99.90
9845;DHT22;4961;50.782;6.080;2022-10-22T08:26:08;16.00;99.90
9845;DHT22;4961;50.782;6.080;2022-10-22T08:28:36;16.00;99.90
9845;DHT22;4961;50.782;6.080;2022-10-22T08:31:05;16.00;99.90
9845;DHT22;4961;50.782;6.080;2022-10-22T08:33:35;16.00;99.90
9845;DHT22;4961;50.782;6.080;2022-10-22T08:36:07;16.00;99.90
9845;DHT22;4961;50.782;6.080;2022-10-22T08:38:36;15.90;99.90
9845;DHT22;4961;50.782;6.080;2022-10-22T08:41:12;16.00;99.90
9845;DHT22;4961;50.782;6.080;2022-10-22T08:46:49;16.00;99.90
9845;DHT22;4961;50.782;6.080;2022-10-22T08:49:21;16.10;99.90
9845;DHT22;4961;50.782;6.080;2022-10-22T08:51:51;16.10;99.90
9845;DHT22;4961;50.782;6.080;2022-10-22T08:54:29;16.20;99.90
9845;DHT22;4961;50.782;6.080;2022-10-22T09:00:01;16.10;99.90
9845;DHT22;4961;50.782;6.080;2022-10-22T09:02:36;16.00;99.90
9845;DHT22;4961;50.782;6.080;2022-10-22T09:05:26;16.00;99.90
9845;DHT22;4961;50.782;6.080;2022-10-22T09:07:56;16.10;99.90
9845;DHT22;4961;50.782;6.080;2022-10-22T09:10:27;16.00;99.90
9845;DHT22;4961;50.782;6.080;2022-10-22T09:12:57;15.90;99.90
9845;DHT22;4961;50.782;6.080;2022-10-22T09:15:26;16.00;99.90
9845;DHT22;4961;50.782;6.080;2022-10-22T09:18:10;16.00;99.90
9845;DHT22;4961;50.782;6.080;2022-10-22T09:20:48;16.00;99.90
9845;DHT22;4961;50.782;6.080;2022-10-22T09:23:23;16.00;99.90
9845;DHT22;4961;50.782;6.080;2022-10-22T09:25:56;16.00;99.90
9845;DHT22;4961;50.782;6.080;2022-10-22T09:28:26;16.10;99.90
9845;DHT22;4961;50.782;6.080;2022-10-22T09:30:55;16.10;99.90
9845;DHT22;4961;50.782;6.080;2022-10-22T09:33:26;16.10;99.90
9845;DHT22;4961;50.782;6.080;2022-10-22T09:35:58;16.10;99.90
9845;DHT22;4961;50.782;6.080;2022-10-22T09:38:33;16.20;99.90
9845;DHT22;4961;50.782;6.080;2022-10-22T09:41:01;16.20;99.90
9845;DHT22;4961;50.782;6.080;2022-10-22T09:43:32;16.30;99.90
9845;DHT22;4961;50.782;6.080;2022-10-22T09:46:04;16.20;99.90
9845;DHT22;4961;50.782;6.080;2022-10-22T09:48:34;16.20;99.90
9845;DHT22;4961;50.782;6.080;2022-10-22T09:51:09;16.30;99.90
9845;DHT22;4961;50.782;6.080;2022-10-22T09:53:42;16.30;99.90
9845;DHT22;4961;50.782;6.080;2022-10-22T09:56:17;16.30;99.90
9845;DHT22;4961;50.782;6.080;2022-10-22T09:58:50;16.30;99.90
9845;DHT22;4961;50.782;6.080;2022-10-22T10:01:21;16.30;99.90
9845;DHT22;4961;50.782;6.080;2022-10-22T10:03:50;16.40;99.90
9845;DHT22;4961;50.782;6.080;2022-10-22T10:06:19;16.40;99.90
9845;DHT22;4961;50.782;6.080;2022-10-22T10:08:48;16.40;99.90
9845;DHT22;4961;50.782;6.080;2022-10-22T10:11:22;16.40;99.90
9845;DHT22;4961;50.782;6.080;2022-10-22T10:14:05;16.30;99.90
9845;DHT22;4961;50.782;6.080;2022-10-22T10:16:44;16.30;99.90
9845;DHT22;4961;50.782;6.080;2022-10-22T10:19:29;16.30;99.90
9845;DHT22;4961;50.782;6.080;2022-10-22T10:22:13;16.30;99.90
9845;DHT22;4961;50.782;6.080;2022-10-22T10:25:02;16.30;99.90
9845;DHT22;4961;50.782;6.080;2022-10-22T10:27:40;16.30;99.90
9845;DHT22;4961;50.782;6.080;2022-10-22T10:30:13;16.40;99.90
9845;DHT22;4961;50.782;6.080;2022-10-22T10:33:03;16.30;99.90
9845;DHT22;4961;50.782;6.080;2022-10-22T10:35:41;16.30;99.90
9845;DHT22;4961;50.782;6.080;2022-10-22T10:38:23;16.30;99.90
9845;DHT22;4961;50.782;6.080;2022-10-22T10:41:01;16.30;99.90
9845;DHT22;4961;50.782;6.080;2022-10-22T10:43:37;16.30;99.90
9845;DHT22;4961;50.782;6.080;2022-10-22T10:46:17;16.30;99.90
9845;DHT22;4961;50.782;6.080;2022-10-22T10:48:53;16.30;99.90
9845;DHT22;4961;50.782;6.080;2022-10-22T10:51:37;16.40;99.90
9845;DHT22;4961;50.782;6.080;2022-10-22T10:54:18;16.40;99.90
9845;DHT22;4961;50.782;6.080;2022-10-22T10:56:53;16.30;99.90
9845;DHT22;4961;50.782;6.080;2022-10-22T10:59:34;16.30;99.90
9845;DHT22;4961;50.782;6.080;2022-10-22T11:02:41;16.30;99.90
9845;DHT22;4961;50.782;6.080;2022-10-22T11:05:25;16.40;99.90
9845;DHT22;4961;50.782;6.080;2022-10-22T11:07:58;16.50;99.90
9845;DHT22;4961;50.782;6.080;2022-10-22T11:10:38;16.60;99.90
9845;DHT22;4961;50.782;6.080;2022-10-22T11:13:13;16.60;99.90
9845;DHT22;4961;50.782;6.080;2022-10-22T11:15:46;16.70;99.90
9845;DHT22;4961;50.782;6.080;2022-10-22T11:18:22;16.70;99.90
9845;DHT22;4961;50.782;6.080;2022-10-22T11:21:02;16.70;99.90
9845;DHT22;4961;50.782;6.080;2022-10-22T11:23:37;16.80;99.90
9845;DHT22;4961;50.782;6.080;2022-10-22T11:26:11;16.70;99.90
9845;DHT22;4961;50.782;6.080;2022-10-22T11:28:46;16.70;99.90
9845;DHT22;4961;50.782;6.080;2022-10-22T11:31:17;16.70;99.90
9845;DHT22;4961;50.782;6.080;2022-10-22T11:33:52;16.80;99.90
9845;DHT22;4961;50.782;6.080;2022-10-22T11:36:41;16.70;99.90
9845;DHT22;4961;50.782;6.080;2022-10-22T11:39:29;16.80;99.90
9845;DHT22;4961;50.782;6.080;2022-10-22T11:42:02;16.80;99.90
9845;DHT22;4961;50.782;6.080;2022-10-22T11:44:31;16.90;99.90
9845;DHT22;4961;50.782;6.080;2022-10-22T11:47:17;16.90;99.90
9845;DHT22;4961;50.782;6.080;2022-10-22T11:49:57;16.90;99.90
9845;DHT22;4961;50.782;6.080;2022-10-22T11:52:36;16.90;99.90
9845;DHT22;4961;50.782;6.080;2022-10-22T11:55:31;16.90;99.90
9845;DHT22;4961;50.782;6.080;2022-10-22T11:58:01;16.90;99.90
9845;DHT22;4961;50.782;6.080;2022-10-22T12:00:38;16.90;99.90
9845;DHT22;4961;50.782;6.080;2022-10-22T12:03:18;17.00;99.90
9845;DHT22;4961;50.782;6.080;2022-10-22T12:06:04;17.10;99.90
9845;DHT22;4961;50.782;6.080;2022-10-22T12:08:41;17.40;99.90
9845;DHT22;4961;50.782;6.080;2022-10-22T12:11:15;17.50;99.90
9845;DHT22;4961;50.782;6.080;2022-10-22T12:13:55;17.70;99.90
9845;DHT22;4961;50.782;6.080;2022-10-22T12:16:27;17.90;99.90
9845;DHT22;4961;50.782;6.080;2022-10-22T12:19:22;18.10;99.90
9845;DHT22;4961;50.782;6.080;2022-10-22T12:21:54;18.20;99.90
9845;DHT22;4961;50.782;6.080;2022-10-22T12:24:24;18.30;99.90
9845;DHT22;4961;50.782;6.080;2022-10-22T12:26:53;18.30;99.90
9845;DHT22;4961;50.782;6.080;2022-10-22T12:29:22;18.40;99.90
9845;DHT22;4961;50.782;6.080;2022-10-22T12:31:52;18.50;99.90
9845;DHT22;4961;50.782;6.080;2022-10-22T12:34:22;18.50;99.90
9845;DHT22;4961;50.782;6.080;2022-10-22T12:36:53;18.50;99.90
9845;DHT22;4961;50.782;6.080;2022-10-22T12:39:25;18.50;99.90
9845;DHT22;4961;50.782;6.080;2022-10-22T12:41:54;18.60;99.90
9845;DHT22;4961;50.782;6.080;2022-10-22T12:44:22;18.50;99.90
9845;DHT22;4961;50.782;6.080;2022-10-22T12:46:51;18.40;99.90
9845;DHT22;4961;50.782;6.080;2022-10-22T12:49:32;18.20;99.90
9845;DHT22;4961;50.782;6.080;2022-10-22T12:52:05;18.20;99.90
9845;DHT22;4961;50.782;6.080;2022-10-22T12:54:39;18.30;99.90
9845;DHT22;4961;50.782;6.080;2022-10-22T12:57:13;18.40;99.90
9845;DHT22;4961;50.782;6.080;2022-10-22T12:59:43;18.40;99.90
9845;DHT22;4961;50.782;6.080;2022-10-22T13:02:19;18.40;99.90
9845;DHT22;4961;50.782;6.080;2022-10-22T13:05:21;18.40;99.90
9845;DHT22;4961;50.782;6.080;2022-10-22T13:07:52;18.50;99.90
9845;DHT22;4961;50.782;6.080;2022-10-22T13:10:25;18.50;99.90
9845;DHT22;4961;50.782;6.080;2022-10-22T13:12:56;18.50;99.90
9845;DHT22;4961;50.782;6.080;2022-10-22T13:15:38;18.60;99.90
9845;DHT22;4961;50.782;6.080;2022-10-22T13:18:16;18.80;99.90
9845;DHT22;4961;50.782;6.080;2022-10-22T13:20:52;19.00;99.90
9845;DHT22;4961;50.782;6.080;2022-10-22T13:23:23;19.20;99.90
9845;DHT22;4961;50.782;6.080;2022-10-22T13:26:00;19.40;99.90
9845;DHT22;4961;50.782;6.080;2022-10-22T13:28:31;19.30;99.90
9845;DHT22;4961;50.782;6.080;2022-10-22T13:31:01;19.20;99.90
9845;DHT22;4961;50.782;6.080;2022-10-22T13:33:37;19.30;99.90
9845;DHT22;4961;50.782;6.080;2022-10-22T13:36:08;19.50;99.90
9845;DHT22;4961;50.782;6.080;2022-10-22T13:38:42;19.40;99.90
9845;DHT22;4961;50.782;6.080;2022-10-22T13:41:19;19.40;99.90
9845;DHT22;4961;50.782;6.080;2022-10-22T13:43:48;19.40;99.90
9845;DHT22;4961;50.782;6.080;2022-10-22T13:46:17;19.50;99.90
9845;DHT22;4961;50.782;6.080;2022-10-22T13:48:47;19.60;99.90
9845;DHT22;4961;50.782;6.080;2022-10-22T13:51:17;19.50;99.90
9845;DHT22;4961;50.782;6.080;2022-10-22T13:53:48;19.60;99.90
9845;DHT22;4961;50.782;6.080;2022-10-22T13:56:19;19.60;99.90
9845;DHT22;4961;50.782;6.080;2022-10-22T13:58:49;19.70;99.90
9845;DHT22;4961;50.782;6.080;2022-10-22T14:01:19;19.90;99.90
9845;DHT22;4961;50.782;6.080;2022-10-22T14:03:49;20.10;99.90
9845;DHT22;4961;50.782;6.080;2022-10-22T14:06:19;20.10;99.90
9845;DHT22;4961;50.782;6.080;2022-10-22T14:08:53;20.10;99.90
9845;DHT22;4961;50.782;6.080;2022-10-22T14:11:22;20.00;99.90
9845;DHT22;4961;50.782;6.080;2022-10-22T14:13:51;19.90;99.90
9845;DHT22;4961;50.782;6.080;2022-10-22T14:16:22;19.90;99.90
9845;DHT22;4961;50.782;6.080;2022-10-22T14:18:51;19.80;99.90
9845;DHT22;4961;50.782;6.080;2022-10-22T14:21:21;19.80;99.90
9845;DHT22;4961;50.782;6.080;2022-10-22T14:23:52;19.50;99.90
9845;DHT22;4961;50.782;6.080;2022-10-22T14:26:23;19.40;99.90
9845;DHT22;4961;50.782;6.080;2022-10-22T14:28:53;19.30;99.90
9845;DHT22;4961;50.782;6.080;2022-10-22T14:31:38;19.30;99.90
9845;DHT22;4961;50.782;6.080;2022-10-22T14:34:09;19.30;99.90
9845;DHT22;4961;50.782;6.080;2022-10-22T14:36:37;19.30;99.90
9845;DHT22;4961;50.782;6.080;2022-10-22T14:39:07;19.30;99.90
9845;DHT22;4961;50.782;6.080;2022-10-22T14:41:35;19.20;99.90
9845;DHT22;4961;50.782;6.080;2022-10-22T14:44:04;19.10;99.90
9845;DHT22;4961;50.782;6.080;2022-10-22T14:46:34;19.10;99.90
9845;DHT22;4961;50.782;6.080;2022-10-22T14:49:03;19.00;99.90
9845;DHT22;4961;50.782;6.080;2022-10-22T14:51:31;18.90;99.90
9845;DHT22;4961;50.782;6.080;2022-10-22T14:53:59;18.80;99.90
9845;DHT22;4961;50.782;6.080;2022-10-22T14:56:29;18.80;99.90
9845;DHT22;4961;50.782;6.080;2022-10-22T14:58:57;18.70;99.90
9845;DHT22;4961;50.782;6.080;2022-10-22T15:01:26;18.70;99.90
9845;DHT22;4961;50.782;6.080;2022-10-22T15:03:54;18.70;99.90
9845;DHT22;4961;50.782;6.080;2022-10-22T15:06:23;18.70;99.90
9845;DHT22;4961;50.782;6.080;2022-10-22T15:09:07;18.60;99.90
9845;DHT22;4961;50.782;6.080;2022-10-22T15:12:07;18.60;99.90
9845;DHT22;4961;50.782;6.080;2022-10-22T15:14:39;18.60;99.90
9845;DHT22;4961;50.782;6.080;2022-10-22T15:17:07;18.60;99.90
9845;DHT22;4961;50.782;6.080;2022-10-22T15:19:36;18.50;99.90
9845;DHT22;4961;50.782;6.080;2022-10-22T15:22:04;18.50;99.90
9845;DHT22;4961;50.782;6.080;2022-10-22T15:24:33;18.50;99.90
9845;DHT22;4961;50.782;6.080;2022-10-22T15:27:01;18.50;99.90
9845;DHT22;4961;50.782;6.080;2022-10-22T15:29:32;18.50;99.90
9845;DHT22;4961;50.782;6.080;2022-10-22T15:32:00;18.50;99.90
9845;DHT22;4961;50.782;6.080;2022-10-22T15:34:30;18.40;99.90
9845;DHT22;4961;50.782;6.080;2022-10-22T15:37:01;18.40;99.90
9845;DHT22;4961;50.782;6.080;2022-10-22T15:39:30;18.30;99.90
9845;DHT22;4961;50.782;6.080;2022-10-22T15:41:58;18.30;99.90
9845;DHT22;4961;50.782;6.080;2022-10-22T15:44:28;18.30;99.90
9845;DHT22;4961;50.782;6.080;2022-10-22T15:46:59;18.30;99.90
9845;DHT22;4961;50.782;6.080;2022-10-22T15:49:29;18.30;99.90
9845;DHT22;4961;50.782;6.080;2022-10-22T15:51:58;18.30;99.90
9845;DHT22;4961;50.782;6.080;2022-10-22T15:54:28;18.20;99.90
9845;DHT22;4961;50.782;6.080;2022-10-22T15:56:58;18.20;99.90
9845;DHT22;4961;50.782;6.080;2022-10-22T15:59:29;18.10;99.90
9845;DHT22;4961;50.782;6.080;2022-10-22T16:01:59;18.10;99.90
9845;DHT22;4961;50.782;6.080;2022-10-22T16:04:27;18.10;99.90
9845;DHT22;4961;50.782;6.080;2022-10-22T16:06:56;18.20;99.90
9845;DHT22;4961;50.782;6.080;2022-10-22T16:09:26;18.00;99.90
9845;DHT22;4961;50.782;6.080;2022-10-22T16:11:55;18.00;99.90
9845;DHT22;4961;50.782;6.080;2022-10-22T16:14:23;18.00;99.90
9845;DHT22;4961;50.782;6.080;2022-10-22T16:16:53;18.00;99.90
9845;DHT22;4961;50.782;6.080;2022-10-22T16:19:24;17.90;99.90
9845;DHT22;4961;50.782;6.080;2022-10-22T16:21:54;17.90;99.90
9845;DHT22;4961;50.782;6.080;2022-10-22T16:24:22;17.80;99.90
9845;DHT22;4961;50.782;6.080;2022-10-22T16:26:51;17.80;99.90
9845;DHT22;4961;50.782;6.080;2022-10-22T16:29:19;17.80;99.90
9845;DHT22;4961;50.782;6.080;2022-10-22T16:31:49;17.70;99.90
9845;DHT22;4961;50.782;6.080;2022-10-22T16:34:17;17.60;99.90
9845;DHT22;4961;50.782;6.080;2022-10-22T16:36:47;17.60;99.90
9845;DHT22;4961;50.782;6.080;2022-10-22T16:39:18;17.50;99.90